sensor_id;sensor_type;location;lat;lon;timestamp;temperature;humidity
68813;DHT22;55808;48.112;11.552;2022-11-14T00:02:22;4.10;99.90
68813;DHT22;55808;48.112;11.552;2022-11-14T00:04:48;4.00;99.90
68813;DHT22;55808;48.112;11.552;2022-11-14T00:07:14;4.10;99.90
68813;DHT22;55808;48.112;11.552;2022-11-14T00:09:40;4.10;99.90
68813;DHT22;55808;48.112;11.552;2022-11-14T00:12:10;4.10;99.90
68813;DHT22;55808;48.112;11.552;2022-11-14T00:14:36;4.00;99.90
68813;DHT22;55808;48.112;11.552;2022-11-14T00:17:03;4.10;99.90
68813;DHT22;55808;48.112;11.552;2022-11-14T00:19:28;4.10;99.90
68813;DHT22;55808;48.112;11.552;2022-11-14T00:21:54;3.90;99.90
68813;DHT22;55808;48.112;11.552;2022-11-14T00:24:20;3.80;99.90
68813;DHT22;55808;48.112;11.552;2022-11-14T00:26:46;3.80;99.90
68813;DHT22;55808;48.112;11.552;2022-11-14T00:29:13;3.80;99.90
68813;DHT22;55808;48.112;11.552;2022-11-14T00:31:38;3.70;99.90
68813;DHT22;55808;48.112;11.552;2022-11-14T00:34:04;3.70;99.90
68813;DHT22;55808;48.112;11.552;2022-11-14T00:36:30;3.70;99.90
68813;DHT22;55808;48.112;11.552;2022-11-14T00:38:56;3.80;99.90
68813;DHT22;55808;48.112;11.552;2022-11-14T00:41:22;4.00;99.90
68813;DHT22;55808;48.112;11.552;2022-11-14T00:43:47;4.10;99.90
68813;DHT22;55808;48.112;11.552;2022-11-14T00:46:13;4.20;99.90
68813;DHT22;55808;48.112;11.552;2022-11-14T00:48:39;4.20;99.90
68813;DHT22;55808;48.112;11.552;2022-11-14T00:51:05;4.30;99.90
68813;DHT22;55808;48.112;11.552;2022-11-14T00:53:31;4.30;99.90
68813;DHT22;55808;48.112;11.552;2022-11-14T00:55:57;4.20;99.90
68813;DHT22;55808;48.112;11.552;2022-11-14T00:58:22;4.30;99.90
68813;DHT22;55808;48.112;11.552;2022-11-14T01:00:48;4.30;99.90
68813;DHT22;55808;48.112;11.552;2022-11-14T01:03:14;4.30;99.90
68813;DHT22;55808;48.112;11.552;2022-11-14T01:05:43;4.20;99.90
68813;DHT22;55808;48.112;11.552;2022-11-14T01:08:09;4.10;99.90
68813;DHT22;55808;48.112;11.552;2022-11-14T01:10:40;4.20;99.90
68813;DHT22;55808;48.112;11.552;2022-11-14T01:13:06;4.20;99.90
68813;DHT22;55808;48.112;11.552;2022-11-14T01:15:32;4.00;99.90
68813;DHT22;55808;48.112;11.552;2022-11-14T01:17:58;4.00;99.90
68813;DHT22;55808;48.112;11.552;2022-11-14T01:20:23;4.10;99.90
68813;DHT22;55808;48.112;11.552;2022-11-14T01:22:49;3.90;99.90
68813;DHT22;55808;48.112;11.552;2022-11-14T01:25:15;3.90;99.90
68813;DHT22;55808;48.112;11.552;2022-11-14T01:27:40;3.90;99.90
68813;DHT22;55808;48.112;11.552;2022-11-14T01:30:06;3.90;99.90
68813;DHT22;55808;48.112;11.552;2022-11-14T01:32:32;3.90;99.90
68813;DHT22;55808;48.112;11.552;2022-11-14T01:34:58;3.90;99.90
68813;DHT22;55808;48.112;11.552;2022-11-14T01:37:23;3.80;99.90
68813;DHT22;55808;48.112;11.552;2022-11-14T01:39:49;3.80;99.90
68813;DHT22;55808;48.112;11.552;2022-11-14T01:42:14;3.90;99.90
68813;DHT22;55808;48.112;11.552;2022-11-14T01:47:10;3.50;99.90
68813;DHT22;55808;48.112;11.552;2022-11-14T01:49:42;3.50;99.90
68813;DHT22;55808;48.112;11.552;2022-11-14T01:54:49;3.50;99.90
68813;DHT22;55808;48.112;11.552;2022-11-14T01:57:17;3.50;99.90
68813;DHT22;55808;48.112;11.552;2022-11-14T01:59:49;3.50;99.90
68813;DHT22;55808;48.112;11.552;2022-11-14T02:02:22;3.90;99.90
68813;DHT22;55808;48.112;11.552;2022-11-14T02:04:52;3.20;99.90
68813;DHT22;55808;48.112;11.552;2022-11-14T02:07:20;3.10;99.90
68813;DHT22;55808;48.112;11.552;2022-11-14T02:09:48;3.10;99.90
68813;DHT22;55808;48.112;11.552;2022-11-14T02:12:16;3.30;99.90
68813;DHT22;55808;48.112;11.552;2022-11-14T02:14:43;3.30;99.90
68813;DHT22;55808;48.112;11.552;2022-11-14T02:17:11;3.30;99.90
68813;DHT22;55808;48.112;11.552;2022-11-14T02:19:54;3.50;99.90
68813;DHT22;55808;48.112;11.552;2022-11-14T02:22:22;3.50;99.90
68813;DHT22;55808;48.112;11.552;2022-11-14T02:24:48;3.30;99.90
68813;DHT22;55808;48.112;11.552;2022-11-14T02:27:14;3.40;99.90
68813;DHT22;55808;48.112;11.552;2022-11-14T02:29:40;3.30;99.90
68813;DHT22;55808;48.112;11.552;2022-11-14T02:32:06;4.20;99.90
68813;DHT22;55808;48.112;11.552;2022-11-14T02:34:32;3.30;99.90
68813;DHT22;55808;48.112;11.552;2022-11-14T02:36:58;3.40;99.90
68813;DHT22;55808;48.112;11.552;2022-11-14T02:39:23;3.50;99.90
68813;DHT22;55808;48.112;11.552;2022-11-14T02:41:50;3.60;99.90
68813;DHT22;55808;48.112;11.552;2022-11-14T02:44:16;4.70;99.90
68813;DHT22;55808;48.112;11.552;2022-11-14T02:46:42;3.70;99.90
68813;DHT22;55808;48.112;11.552;2022-11-14T02:49:07;3.70;99.90
68813;DHT22;55808;48.112;11.552;2022-11-14T02:51:33;3.70;99.90
68813;DHT22;55808;48.112;11.552;2022-11-14T02:53:59;3.70;99.90
68813;DHT22;55808;48.112;11.552;2022-11-14T02:56:24;3.70;99.90
68813;DHT22;55808;48.112;11.552;2022-11-14T02:58:50;3.80;99.90
68813;DHT22;55808;48.112;11.552;2022-11-14T03:01:15;3.70;99.90
68813;DHT22;55808;48.112;11.552;2022-11-14T03:03:41;3.70;99.90
68813;DHT22;55808;48.112;11.552;2022-11-14T03:06:07;3.60;99.90
68813;DHT22;55808;48.112;11.552;2022-11-14T03:08:32;3.50;99.90
68813;DHT22;55808;48.112;11.552;2022-11-14T03:11:05;3.30;99.90
68813;DHT22;55808;48.112;11.552;2022-11-14T03:13:31;3.40;99.90
68813;DHT22;55808;48.112;11.552;2022-11-14T03:15:57;3.40;99.90
68813;DHT22;55808;48.112;11.552;2022-11-14T03:18:22;3.40;99.90
68813;DHT22;55808;48.112;11.552;2022-11-14T03:20:48;3.40;99.90
68813;DHT22;55808;48.112;11.552;2022-11-14T03:23:14;3.40;99.90
68813;DHT22;55808;48.112;11.552;2022-11-14T03:25:39;3.40;99.90
68813;DHT22;55808;48.112;11.552;2022-11-14T03:28:05;3.50;99.90
68813;DHT22;55808;48.112;11.552;2022-11-14T03:30:30;3.40;99.90
68813;DHT22;55808;48.112;11.552;2022-11-14T03:32:56;3.40;99.90
68813;DHT22;55808;48.112;11.552;2022-11-14T03:35:22;3.30;99.90
68813;DHT22;55808;48.112;11.552;2022-11-14T03:37:48;3.30;99.90
68813;DHT22;55808;48.112;11.552;2022-11-14T03:40:14;3.40;99.90
68813;DHT22;55808;48.112;11.552;2022-11-14T03:42:39;3.40;99.90
68813;DHT22;55808;48.112;11.552;2022-11-14T03:45:05;3.50;99.90
68813;DHT22;55808;48.112;11.552;2022-11-14T03:47:31;3.50;99.90
68813;DHT22;55808;48.112;11.552;2022-11-14T03:49:57;3.40;99.90
68813;DHT22;55808;48.112;11.552;2022-11-14T03:52:22;3.40;99.90
68813;DHT22;55808;48.112;11.552;2022-11-14T03:54:50;3.40;99.90
68813;DHT22;55808;48.112;11.552;2022-11-14T03:57:16;3.50;99.90
68813;DHT22;55808;48.112;11.552;2022-11-14T03:59:41;3.50;99.90
68813;DHT22;55808;48.112;11.552;2022-11-14T04:02:07;3.50;99.90
68813;DHT22;55808;48.112;11.552;2022-11-14T04:04:33;3.60;99.90
68813;DHT22;55808;48.112;11.552;2022-11-14T04:06:59;3.60;99.90
68813;DHT22;55808;48.112;11.552;2022-11-14T04:09:24;3.50;99.90
68813;DHT22;55808;48.112;11.552;2022-11-14T04:11:50;3.40;99.90
68813;DHT22;55808;48.112;11.552;2022-11-14T04:14:15;3.40;99.90
68813;DHT22;55808;48.112;11.552;2022-11-14T04:16:41;3.40;99.90
68813;DHT22;55808;48.112;11.552;2022-11-14T04:19:07;3.50;99.90
68813;DHT22;55808;48.112;11.552;2022-11-14T04:21:32;3.50;99.90
68813;DHT22;55808;48.112;11.552;2022-11-14T04:23:58;3.60;99.90
68813;DHT22;55808;48.112;11.552;2022-11-14T04:26:23;3.60;99.90
68813;DHT22;55808;48.112;11.552;2022-11-14T04:28:49;3.50;99.90
68813;DHT22;55808;48.112;11.552;2022-11-14T04:31:15;3.40;99.90
68813;DHT22;55808;48.112;11.552;2022-11-14T04:33:40;3.40;99.90
68813;DHT22;55808;48.112;11.552;2022-11-14T04:36:06;3.50;99.90
68813;DHT22;55808;48.112;11.552;2022-11-14T04:38:32;3.40;99.90
68813;DHT22;55808;48.112;11.552;2022-11-14T04:40:57;3.40;99.90
68813;DHT22;55808;48.112;11.552;2022-11-14T04:43:23;3.40;99.90
68813;DHT22;55808;48.112;11.552;2022-11-14T04:45:48;3.40;99.90
68813;DHT22;55808;48.112;11.552;2022-11-14T04:48:14;3.40;99.90
68813;DHT22;55808;48.112;11.552;2022-11-14T04:50:40;3.40;99.90
68813;DHT22;55808;48.112;11.552;2022-11-14T04:53:05;3.40;99.90
68813;DHT22;55808;48.112;11.552;2022-11-14T04:55:31;3.50;99.90
68813;DHT22;55808;48.112;11.552;2022-11-14T04:57:57;3.50;99.90
68813;DHT22;55808;48.112;11.552;2022-11-14T05:00:24;3.50;99.90
68813;DHT22;55808;48.112;11.552;2022-11-14T05:02:50;3.50;99.90
68813;DHT22;55808;48.112;11.552;2022-11-14T05:05:16;3.50;99.90
68813;DHT22;55808;48.112;11.552;2022-11-14T05:07:41;3.60;99.90
68813;DHT22;55808;48.112;11.552;2022-11-14T05:10:08;3.60;99.90
68813;DHT22;55808;48.112;11.552;2022-11-14T05:12:34;3.50;99.90
68813;DHT22;55808;48.112;11.552;2022-11-14T05:14:59;3.50;99.90
68813;DHT22;55808;48.112;11.552;2022-11-14T05:17:25;3.50;99.90
68813;DHT22;55808;48.112;11.552;2022-11-14T05:19:51;3.30;99.90
68813;DHT22;55808;48.112;11.552;2022-11-14T05:22:17;3.40;99.90
68813;DHT22;55808;48.112;11.552;2022-11-14T05:24:42;3.20;99.90
68813;DHT22;55808;48.112;11.552;2022-11-14T05:27:08;3.10;99.90
68813;DHT22;55808;48.112;11.552;2022-11-14T05:29:33;3.10;99.90
68813;DHT22;55808;48.112;11.552;2022-11-14T05:31:59;3.10;99.90
68813;DHT22;55808;48.112;11.552;2022-11-14T05:34:25;3.00;99.90
68813;DHT22;55808;48.112;11.552;2022-11-14T05:36:51;3.00;99.90
68813;DHT22;55808;48.112;11.552;2022-11-14T05:39:17;3.00;99.90
68813;DHT22;55808;48.112;11.552;2022-11-14T05:41:42;2.80;99.90
68813;DHT22;55808;48.112;11.552;2022-11-14T05:44:08;2.60;99.90
68813;DHT22;55808;48.112;11.552;2022-11-14T05:46:34;2.60;99.90
68813;DHT22;55808;48.112;11.552;2022-11-14T05:48:59;2.60;99.90
68813;DHT22;55808;48.112;11.552;2022-11-14T05:51:25;2.50;99.90
68813;DHT22;55808;48.112;11.552;2022-11-14T05:53:51;2.50;99.90
68813;DHT22;55808;48.112;11.552;2022-11-14T05:56:16;2.60;99.90
68813;DHT22;55808;48.112;11.552;2022-11-14T05:58:42;2.70;99.90
68813;DHT22;55808;48.112;11.552;2022-11-14T06:01:10;2.60;99.90
68813;DHT22;55808;48.112;11.552;2022-11-14T06:03:39;2.70;99.90
68813;DHT22;55808;48.112;11.552;2022-11-14T06:06:07;2.60;99.90
68813;DHT22;55808;48.112;11.552;2022-11-14T06:08:33;2.50;99.90
68813;DHT22;55808;48.112;11.552;2022-11-14T06:11:14;2.50;99.90
68813;DHT22;55808;48.112;11.552;2022-11-14T06:13:40;2.40;99.90
68813;DHT22;55808;48.112;11.552;2022-11-14T06:16:09;2.50;99.90
68813;DHT22;55808;48.112;11.552;2022-11-14T06:18:37;2.40;99.90
68813;DHT22;55808;48.112;11.552;2022-11-14T06:21:09;2.40;99.90
68813;DHT22;55808;48.112;11.552;2022-11-14T06:23:35;2.40;99.90
68813;DHT22;55808;48.112;11.552;2022-11-14T06:26:03;2.30;99.90
68813;DHT22;55808;48.112;11.552;2022-11-14T06:28:30;2.30;99.90
68813;DHT22;55808;48.112;11.552;2022-11-14T06:30:59;2.30;99.90
68813;DHT22;55808;48.112;11.552;2022-11-14T06:33:27;2.20;99.90
68813;DHT22;55808;48.112;11.552;2022-11-14T06:36:13;2.30;99.90
68813;DHT22;55808;48.112;11.552;2022-11-14T06:38:40;2.30;99.90
68813;DHT22;55808;48.112;11.552;2022-11-14T06:41:17;2.20;99.90
68813;DHT22;55808;48.112;11.552;2022-11-14T06:43:47;2.30;99.90
68813;DHT22;55808;48.112;11.552;2022-11-14T06:46:20;2.30;99.90
68813;DHT22;55808;48.112;11.552;2022-11-14T06:48:46;2.40;99.90
68813;DHT22;55808;48.112;11.552;2022-11-14T06:51:14;2.30;99.90
68813;DHT22;55808;48.112;11.552;2022-11-14T06:53:40;2.40;99.90
68813;DHT22;55808;48.112;11.552;2022-11-14T06:56:10;2.40;99.90
68813;DHT22;55808;48.112;11.552;2022-11-14T06:58:41;2.40;99.90
68813;DHT22;55808;48.112;11.552;2022-11-14T07:01:11;2.40;99.90
68813;DHT22;55808;48.112;11.552;2022-11-14T07:03:37;2.40;99.90
68813;DHT22;55808;48.112;11.552;2022-11-14T07:06:04;2.40;99.90
68813;DHT22;55808;48.112;11.552;2022-11-14T07:08:30;2.40;99.90
68813;DHT22;55808;48.112;11.552;2022-11-14T07:11:12;2.30;99.90
68813;DHT22;55808;48.112;11.552;2022-11-14T07:16:20;2.50;99.90
68813;DHT22;55808;48.112;11.552;2022-11-14T07:18:47;2.50;99.90
68813;DHT22;55808;48.112;11.552;2022-11-14T07:21:13;2.60;99.90
68813;DHT22;55808;48.112;11.552;2022-11-14T07:23:39;2.70;99.90
68813;DHT22;55808;48.112;11.552;2022-11-14T07:26:07;2.70;99.90
68813;DHT22;55808;48.112;11.552;2022-11-14T07:28:34;2.70;99.90
68813;DHT22;55808;48.112;11.552;2022-11-14T07:31:03;2.70;99.90
68813;DHT22;55808;48.112;11.552;2022-11-14T07:33:30;2.70;99.90
68813;DHT22;55808;48.112;11.552;2022-11-14T07:35:55;2.80;99.90
68813;DHT22;55808;48.112;11.552;2022-11-14T07:38:21;2.80;99.90
68813;DHT22;55808;48.112;11.552;2022-11-14T07:40:56;2.90;99.90
68813;DHT22;55808;48.112;11.552;2022-11-14T07:43:22;2.90;99.90
68813;DHT22;55808;48.112;11.552;2022-11-14T07:45:48;3.00;99.90
68813;DHT22;55808;48.112;11.552;2022-11-14T07:48:14;3.00;99.90
68813;DHT22;55808;48.112;11.552;2022-11-14T07:50:41;3.00;99.90
68813;DHT22;55808;48.112;11.552;2022-11-14T07:53:06;3.10;99.90
68813;DHT22;55808;48.112;11.552;2022-11-14T07:55:34;3.20;99.90
68813;DHT22;55808;48.112;11.552;2022-11-14T07:58:00;3.10;99.90
68813;DHT22;55808;48.112;11.552;2022-11-14T08:00:26;3.30;99.90
68813;DHT22;55808;48.112;11.552;2022-11-14T08:02:51;3.30;99.90
68813;DHT22;55808;48.112;11.552;2022-11-14T08:05:17;3.30;99.90
68813;DHT22;55808;48.112;11.552;2022-11-14T08:07:44;3.40;99.90
68813;DHT22;55808;48.112;11.552;2022-11-14T08:10:10;3.40;99.90
68813;DHT22;55808;48.112;11.552;2022-11-14T08:12:38;3.50;99.90
68813;DHT22;55808;48.112;11.552;2022-11-14T08:15:08;3.50;99.90
68813;DHT22;55808;48.112;11.552;2022-11-14T08:17:37;3.50;99.90
68813;DHT22;55808;48.112;11.552;2022-11-14T08:20:09;3.50;99.90
68813;DHT22;55808;48.112;11.552;2022-11-14T08:22:46;3.60;99.90
68813;DHT22;55808;48.112;11.552;2022-11-14T08:25:16;3.60;99.90
68813;DHT22;55808;48.112;11.552;2022-11-14T08:27:42;3.60;99.90
68813;DHT22;55808;48.112;11.552;2022-11-14T08:30:09;3.70;99.90
68813;DHT22;55808;48.112;11.552;2022-11-14T08:32:35;3.70;99.90
68813;DHT22;55808;48.112;11.552;2022-11-14T08:35:01;3.70;99.90
68813;DHT22;55808;48.112;11.552;2022-11-14T08:37:26;3.70;99.90
68813;DHT22;55808;48.112;11.552;2022-11-14T08:39:52;3.80;99.90
68813;DHT22;55808;48.112;11.552;2022-11-14T08:42:18;3.90;99.90
68813;DHT22;55808;48.112;11.552;2022-11-14T08:44:43;3.90;99.90
68813;DHT22;55808;48.112;11.552;2022-11-14T08:47:09;4.00;99.90
68813;DHT22;55808;48.112;11.552;2022-11-14T08:49:34;4.00;99.90
68813;DHT22;55808;48.112;11.552;2022-11-14T08:52:00;4.00;99.90
68813;DHT22;55808;48.112;11.552;2022-11-14T08:54:26;4.10;99.90
68813;DHT22;55808;48.112;11.552;2022-11-14T08:56:51;4.20;99.90
68813;DHT22;55808;48.112;11.552;2022-11-14T08:59:17;4.20;99.90
68813;DHT22;55808;48.112;11.552;2022-11-14T09:01:42;4.20;99.90
68813;DHT22;55808;48.112;11.552;2022-11-14T09:04:08;4.20;99.90
68813;DHT22;55808;48.112;11.552;2022-11-14T09:06:34;4.40;99.90
68813;DHT22;55808;48.112;11.552;2022-11-14T09:08:59;4.40;99.90
68813;DHT22;55808;48.112;11.552;2022-11-14T09:11:25;4.50;99.90
68813;DHT22;55808;48.112;11.552;2022-11-14T09:13:50;4.60;99.90
68813;DHT22;55808;48.112;11.552;2022-11-14T09:16:16;4.70;99.90
68813;DHT22;55808;48.112;11.552;2022-11-14T09:18:42;4.90;99.90
68813;DHT22;55808;48.112;11.552;2022-11-14T09:21:08;5.10;99.90
68813;DHT22;55808;48.112;11.552;2022-11-14T09:23:35;5.20;99.90
68813;DHT22;55808;48.112;11.552;2022-11-14T09:26:08;5.30;99.90
68813;DHT22;55808;48.112;11.552;2022-11-14T09:28:35;5.20;99.90
68813;DHT22;55808;48.112;11.552;2022-11-14T09:31:06;5.30;99.90
68813;DHT22;55808;48.112;11.552;2022-11-14T09:33:33;5.40;99.90
68813;DHT22;55808;48.112;11.552;2022-11-14T09:36:01;5.50;99.90
68813;DHT22;55808;48.112;11.552;2022-11-14T09:38:27;5.60;99.90
68813;DHT22;55808;48.112;11.552;2022-11-14T09:46:30;5.80;99.90
68813;DHT22;55808;48.112;11.552;2022-11-14T09:48:56;6.00;99.90
68813;DHT22;55808;48.112;11.552;2022-11-14T09:51:31;6.10;99.90
68813;DHT22;55808;48.112;11.552;2022-11-14T09:54:17;6.10;99.90
68813;DHT22;55808;48.112;11.552;2022-11-14T09:56:44;6.30;99.90
68813;DHT22;55808;48.112;11.552;2022-11-14T09:59:11;6.20;99.90
68813;DHT22;55808;48.112;11.552;2022-11-14T10:02:00;6.40;99.90
68813;DHT22;55808;48.112;11.552;2022-11-14T10:04:50;6.60;99.90
68813;DHT22;55808;48.112;11.552;2022-11-14T10:10:28;6.90;99.90
68813;DHT22;55808;48.112;11.552;2022-11-14T10:18:22;7.10;99.90
68813;DHT22;55808;48.112;11.552;2022-11-14T10:20:56;7.10;99.90
68813;DHT22;55808;48.112;11.552;2022-11-14T10:28:52;7.30;99.90
68813;DHT22;55808;48.112;11.552;2022-11-14T10:31:35;7.30;99.90
68813;DHT22;55808;48.112;11.552;2022-11-14T10:37:15;7.50;99.50
68813;DHT22;55808;48.112;11.552;2022-11-14T10:39:50;7.50;99.40
68813;DHT22;55808;48.112;11.552;2022-11-14T10:42:39;7.60;98.80
68813;DHT22;55808;48.112;11.552;2022-11-14T10:47:42;7.90;98.70
68813;DHT22;55808;48.112;11.552;2022-11-14T10:50:23;8.10;98.50
68813;DHT22;55808;48.112;11.552;2022-11-14T10:52:53;8.10;98.90
68813;DHT22;55808;48.112;11.552;2022-11-14T10:55:21;8.40;99.20
68813;DHT22;55808;48.112;11.552;2022-11-14T10:57:48;8.40;99.90
68813;DHT22;55808;48.112;11.552;2022-11-14T11:00:21;8.20;99.90
68813;DHT22;55808;48.112;11.552;2022-11-14T11:02:56;8.20;99.90
68813;DHT22;55808;48.112;11.552;2022-11-14T11:05:24;8.20;99.90
68813;DHT22;55808;48.112;11.552;2022-11-14T11:07:52;8.40;99.90
68813;DHT22;55808;48.112;11.552;2022-11-14T11:10:44;8.40;99.90
68813;DHT22;55808;48.112;11.552;2022-11-14T11:13:32;8.60;99.90
68813;DHT22;55808;48.112;11.552;2022-11-14T11:15:59;8.70;99.90
68813;DHT22;55808;48.112;11.552;2022-11-14T11:18:35;8.60;99.90
68813;DHT22;55808;48.112;11.552;2022-11-14T11:21:09;8.90;99.90
68813;DHT22;55808;48.112;11.552;2022-11-14T11:23:46;9.40;99.90
68813;DHT22;55808;48.112;11.552;2022-11-14T11:26:19;10.40;99.30
68813;DHT22;55808;48.112;11.552;2022-11-14T11:29:18;13.40;91.80
68813;DHT22;55808;48.112;11.552;2022-11-14T11:31:55;14.40;87.30
68813;DHT22;55808;48.112;11.552;2022-11-14T11:34:32;15.60;81.80
68813;DHT22;55808;48.112;11.552;2022-11-14T11:37:03;15.10;75.80
68813;DHT22;55808;48.112;11.552;2022-11-14T11:39:34;14.60;77.30
68813;DHT22;55808;48.112;11.552;2022-11-14T11:42:10;14.00;80.10
68813;DHT22;55808;48.112;11.552;2022-11-14T11:44:43;13.80;78.60
68813;DHT22;55808;48.112;11.552;2022-11-14T11:47:16;13.60;80.00
68813;DHT22;55808;48.112;11.552;2022-11-14T11:49:55;14.20;78.10
68813;DHT22;55808;48.112;11.552;2022-11-14T11:52:38;13.80;78.00
68813;DHT22;55808;48.112;11.552;2022-11-14T11:57:40;14.30;75.90
68813;DHT22;55808;48.112;11.552;2022-11-14T12:00:15;14.10;78.10
68813;DHT22;55808;48.112;11.552;2022-11-14T12:02:43;14.50;76.00
68813;DHT22;55808;48.112;11.552;2022-11-14T12:05:15;15.40;73.70
68813;DHT22;55808;48.112;11.552;2022-11-14T12:10:22;14.70;74.00
68813;DHT22;55808;48.112;11.552;2022-11-14T12:28:18;12.70;76.70
68813;DHT22;55808;48.112;11.552;2022-11-14T12:30:49;13.50;76.00
68813;DHT22;55808;48.112;11.552;2022-11-14T12:33:25;14.50;74.10
68813;DHT22;55808;48.112;11.552;2022-11-14T12:35:59;15.40;71.80
68813;DHT22;55808;48.112;11.552;2022-11-14T12:38:31;15.00;71.00
68813;DHT22;55808;48.112;11.552;2022-11-14T12:40:59;14.70;71.10
68813;DHT22;55808;48.112;11.552;2022-11-14T12:46:10;14.10;70.40
68813;DHT22;55808;48.112;11.552;2022-11-14T12:54:03;15.50;66.30
68813;DHT22;55808;48.112;11.552;2022-11-14T13:04:26;12.90;74.60
68813;DHT22;55808;48.112;11.552;2022-11-14T13:15:53;12.20;78.70
68813;DHT22;55808;48.112;11.552;2022-11-14T13:19:15;11.90;78.30
68813;DHT22;55808;48.112;11.552;2022-11-14T13:27:27;11.00;84.20
68813;DHT22;55808;48.112;11.552;2022-11-14T13:29:54;10.90;84.40
68813;DHT22;55808;48.112;11.552;2022-11-14T13:35:12;11.00;86.10
68813;DHT22;55808;48.112;11.552;2022-11-14T13:40:37;11.10;86.30
68813;DHT22;55808;48.112;11.552;2022-11-14T13:51:03;10.80;87.80
68813;DHT22;55808;48.112;11.552;2022-11-14T13:53:30;10.60;88.90
68813;DHT22;55808;48.112;11.552;2022-11-14T13:58:55;10.60;88.60
68813;DHT22;55808;48.112;11.552;2022-11-14T14:01:26;10.60;88.80
68813;DHT22;55808;48.112;11.552;2022-11-14T14:04:19;11.10;88.40
68813;DHT22;55808;48.112;11.552;2022-11-14T14:07:10;12.40;84.50
68813;DHT22;55808;48.112;11.552;2022-11-14T14:15:26;13.40;80.70
68813;DHT22;55808;48.112;11.552;2022-11-14T14:18:11;13.70;81.10
68813;DHT22;55808;48.112;11.552;2022-11-14T14:20:47;13.90;78.70
68813;DHT22;55808;48.112;11.552;2022-11-14T14:26:38;12.80;82.10
68813;DHT22;55808;48.112;11.552;2022-11-14T14:29:29;12.10;83.90
68813;DHT22;55808;48.112;11.552;2022-11-14T14:32:17;12.30;84.70
68813;DHT22;55808;48.112;11.552;2022-11-14T14:34:43;12.40;84.40
68813;DHT22;55808;48.112;11.552;2022-11-14T14:37:21;12.30;84.40
68813;DHT22;55808;48.112;11.552;2022-11-14T14:40:01;12.30;84.80
68813;DHT22;55808;48.112;11.552;2022-11-14T14:42:38;12.20;85.30
68813;DHT22;55808;48.112;11.552;2022-11-14T14:45:12;12.60;84.50
68813;DHT22;55808;48.112;11.552;2022-11-14T14:47:43;12.80;82.60
68813;DHT22;55808;48.112;11.552;2022-11-14T14:50:19;12.30;84.60
68813;DHT22;55808;48.112;11.552;2022-11-14T14:52:45;11.60;85.80
68813;DHT22;55808;48.112;11.552;2022-11-14T14:55:26;11.20;88.40
68813;DHT22;55808;48.112;11.552;2022-11-14T14:57:53;10.80;87.70
68813;DHT22;55808;48.112;11.552;2022-11-14T15:00:22;10.60;89.10
68813;DHT22;55808;48.112;11.552;2022-11-14T15:02:53;10.40;89.70
68813;DHT22;55808;48.112;11.552;2022-11-14T15:05:27;10.30;90.50
68813;DHT22;55808;48.112;11.552;2022-11-14T15:07:58;10.10;91.10
68813;DHT22;55808;48.112;11.552;2022-11-14T15:10:28;10.00;90.40
68813;DHT22;55808;48.112;11.552;2022-11-14T15:12:56;9.90;91.40
68813;DHT22;55808;48.112;11.552;2022-11-14T15:15:22;9.80;92.00
68813;DHT22;55808;48.112;11.552;2022-11-14T15:17:52;9.80;91.30
68813;DHT22;55808;48.112;11.552;2022-11-14T15:20:24;9.70;92.30
68813;DHT22;55808;48.112;11.552;2022-11-14T15:23:18;9.60;92.50
68813;DHT22;55808;48.112;11.552;2022-11-14T15:25:44;9.40;92.70
68813;DHT22;55808;48.112;11.552;2022-11-14T15:28:18;9.30;93.20
68813;DHT22;55808;48.112;11.552;2022-11-14T15:31:00;9.10;93.40
68813;DHT22;55808;48.112;11.552;2022-11-14T15:33:29;9.10;93.50
68813;DHT22;55808;48.112;11.552;2022-11-14T15:36:14;9.00;93.60
68813;DHT22;55808;48.112;11.552;2022-11-14T15:39:04;8.90;94.10
68813;DHT22;55808;48.112;11.552;2022-11-14T15:41:32;8.70;94.50
68813;DHT22;55808;48.112;11.552;2022-11-14T15:43:58;8.60;95.00
68813;DHT22;55808;48.112;11.552;2022-11-14T15:51:46;8.40;96.20
68813;DHT22;55808;48.112;11.552;2022-11-14T15:54:27;8.30;96.30
68813;DHT22;55808;48.112;11.552;2022-11-14T15:56:55;8.20;96.70
68813;DHT22;55808;48.112;11.552;2022-11-14T15:59:22;8.20;96.90
68813;DHT22;55808;48.112;11.552;2022-11-14T16:01:51;8.10;97.30
68813;DHT22;55808;48.112;11.552;2022-11-14T16:04:19;8.10;97.40
68813;DHT22;55808;48.112;11.552;2022-11-14T16:06:45;8.20;97.70
68813;DHT22;55808;48.112;11.552;2022-11-14T16:09:19;8.00;98.20
68813;DHT22;55808;48.112;11.552;2022-11-14T16:11:45;8.00;98.40
68813;DHT22;55808;48.112;11.552;2022-11-14T16:14:11;7.90;99.30
68813;DHT22;55808;48.112;11.552;2022-11-14T16:16:37;7.90;99.30
68813;DHT22;55808;48.112;11.552;2022-11-14T16:19:04;7.90;99.20
68813;DHT22;55808;48.112;11.552;2022-11-14T16:21:30;7.80;99.60
68813;DHT22;55808;48.112;11.552;2022-11-14T16:23:55;7.80;99.80
68813;DHT22;55808;48.112;11.552;2022-11-14T16:26:22;7.70;99.90
68813;DHT22;55808;48.112;11.552;2022-11-14T16:28:50;7.70;99.90
68813;DHT22;55808;48.112;11.552;2022-11-14T16:31:16;7.70;99.90
68813;DHT22;55808;48.112;11.552;2022-11-14T16:33:42;7.60;99.90
68813;DHT22;55808;48.112;11.552;2022-11-14T16:36:10;7.60;99.90
68813;DHT22;55808;48.112;11.552;2022-11-14T16:38:36;7.50;99.90
68813;DHT22;55808;48.112;11.552;2022-11-14T16:41:08;7.50;99.90
68813;DHT22;55808;48.112;11.552;2022-11-14T16:43:34;7.50;99.90
68813;DHT22;55808;48.112;11.552;2022-11-14T16:46:06;7.50;99.90
68813;DHT22;55808;48.112;11.552;2022-11-14T16:48:33;7.50;99.90
68813;DHT22;55808;48.112;11.552;2022-11-14T16:51:00;7.50;99.90
68813;DHT22;55808;48.112;11.552;2022-11-14T16:53:26;7.50;99.90
68813;DHT22;55808;48.112;11.552;2022-11-14T16:55:52;7.50;99.90
68813;DHT22;55808;48.112;11.552;2022-11-14T16:58:17;7.50;99.90
68813;DHT22;55808;48.112;11.552;2022-11-14T17:00:45;7.50;99.90
68813;DHT22;55808;48.112;11.552;2022-11-14T17:03:11;7.50;99.90
68813;DHT22;55808;48.112;11.552;2022-11-14T17:05:48;7.60;99.90
68813;DHT22;55808;48.112;11.552;2022-11-14T17:08:14;7.50;99.90
68813;DHT22;55808;48.112;11.552;2022-11-14T17:10:44;7.50;99.90
68813;DHT22;55808;48.112;11.552;2022-11-14T17:13:15;7.50;99.90
68813;DHT22;55808;48.112;11.552;2022-11-14T17:15:43;7.40;99.90
68813;DHT22;55808;48.112;11.552;2022-11-14T17:18:09;7.40;99.90
68813;DHT22;55808;48.112;11.552;2022-11-14T17:20:38;7.40;99.90
68813;DHT22;55808;48.112;11.552;2022-11-14T17:23:03;7.40;99.90
68813;DHT22;55808;48.112;11.552;2022-11-14T17:25:30;7.30;99.90
68813;DHT22;55808;48.112;11.552;2022-11-14T17:27:55;7.20;99.90
68813;DHT22;55808;48.112;11.552;2022-11-14T17:30:22;7.10;99.90
68813;DHT22;55808;48.112;11.552;2022-11-14T17:32:47;7.10;99.90
68813;DHT22;55808;48.112;11.552;2022-11-14T17:35:13;7.00;99.90